Time;durP1;ratioP1;P1;durP2;ratioP2;P2;SDS_P1;SDS_P2;PMS_P1;PMS_P2;Temp;Humidity;BMP_temperature;BMP_pressure;BME280_temperature;BME280_humidity;BME280_pressure;Samples;Min_cycle;Max_cycle;Signal;HPM_P1;HPM_P2
2022/03/04 00:00:15;;;;;;;14.70;10.67;;;;;;;-0.76;52.73;95555.81;4982925;28;20214;-78
2022/03/04 00:02:41;;;;;;;19.70;9.93;;;;;;;-0.76;52.82;95553.25;4965814;28;20226;-78
2022/03/04 00:05:06;;;;;;;13.40;9.47;;;;;;;-0.74;52.52;95565.03;5000475;28;20174;-78
2022/03/04 00:07:31;;;;;;;15.90;9.93;;;;;;;-0.60;52.28;95564.31;5000525;28;20195;-80
2022/03/04 00:09:57;;;;;;;15.43;9.50;;;;;;;-0.61;51.89;95560.94;4966746;28;20185;-80
2022/03/04 00:12:22;;;;;;;18.37;10.43;;;;;;;-0.64;52.11;95561.09;4997971;28;21052;-80
2022/03/04 00:14:47;;;;;;;16.43;10.07;;;;;;;-0.60;52.03;95564.31;5000098;28;20183;-79
2022/03/04 00:17:13;;;;;;;15.07;10.70;;;;;;;-0.53;52.12;95564.81;4999363;28;20528;-79
2022/03/04 00:19:38;;;;;;;15.57;9.70;;;;;;;-0.57;52.51;95559.06;4982300;28;20308;-79
2022/03/04 00:22:05;;;;;;;14.77;10.70;;;;;;;-0.62;52.88;95566.09;4981764;28;20188;-79
2022/03/04 00:24:30;;;;;;;15.47;10.87;;;;;;;-0.65;52.73;95563.72;4982119;28;20174;-80
2022/03/04 00:26:56;;;;;;;14.17;9.73;;;;;;;-0.57;52.82;95564.16;4981548;28;20189;-80
2022/03/04 00:29:21;;;;;;;13.90;10.00;;;;;;;-0.51;52.83;95558.75;4981727;28;20178;-80
2022/03/04 00:31:46;;;;;;;17.10;9.80;;;;;;;-0.56;52.52;95558.16;4980659;28;20186;-80
2022/03/04 00:34:11;;;;;;;17.60;11.07;;;;;;;-0.55;52.51;95562.34;4998347;28;20202;-79
2022/03/04 00:36:38;;;;;;;17.13;10.97;;;;;;;-0.50;52.26;95565.50;4981129;28;20210;-80
2022/03/04 00:39:07;;;;;;;17.27;10.40;;;;;;;-0.51;52.13;95568.94;4980941;28;20210;-79
2022/03/04 00:41:32;;;;;;;18.27;11.17;;;;;;;-0.66;52.96;95567.19;4979287;28;20549;-80
2022/03/04 00:43:58;;;;;;;15.50;10.13;;;;;;;-0.76;53.15;95573.66;4979681;28;20192;-79
2022/03/04 00:46:23;;;;;;;15.20;10.17;;;;;;;-0.85;53.81;95569.84;4979429;28;20517;-79
2022/03/04 00:48:48;;;;;;;16.57;10.73;;;;;;;-0.95;54.29;95563.59;4997114;28;20182;-79
2022/03/04 00:51:14;;;;;;;17.83;10.50;;;;;;;-0.92;53.95;95560.88;4996253;28;20261;-80
2022/03/04 00:53:41;;;;;;;15.10;10.27;;;;;;;-0.97;53.92;95565.38;4963154;28;20204;-79
2022/03/04 00:56:07;;;;;;;15.33;10.07;;;;;;;-1.01;54.22;95574.06;4979531;28;21049;-80
2022/03/04 00:58:36;;;;;;;15.50;11.20;;;;;;;-1.10;54.53;95564.34;4978957;28;20205;-79
2022/03/04 01:01:02;;;;;;;16.73;10.47;;;;;;;-1.06;54.54;95564.13;4963120;28;20213;-79
2022/03/04 01:03:28;;;;;;;14.63;10.60;;;;;;;-1.15;54.82;95559.47;4994190;28;20197;-79
2022/03/04 01:05:53;;;;;;;16.20;10.33;;;;;;;-1.16;55.06;95560.38;4962830;28;20224;-80
2022/03/04 01:08:19;;;;;;;17.57;10.90;;;;;;;-1.25;54.93;95565.91;4978772;28;20257;-80
2022/03/04 01:10:45;;;;;;;15.67;10.20;;;;;;;-1.25;55.18;95564.19;4978669;28;20275;-80
2022/03/04 01:13:10;;;;;;;18.20;11.80;;;;;;;-1.27;54.93;95567.72;4961741;28;20763;-79
2022/03/04 01:15:36;;;;;;;19.73;10.97;;;;;;;-1.28;55.05;95566.09;4978263;28;20679;-79
2022/03/04 01:18:01;;;;;;;18.47;10.43;;;;;;;-1.28;55.38;95561.00;4977288;28;20207;-80
2022/03/04 01:20:27;;;;;;;17.47;10.97;;;;;;;-1.34;55.05;95558.72;4988689;28;20193;-80
2022/03/04 01:22:52;;;;;;;14.47;10.33;;;;;;;-1.31;55.75;95556.88;4958812;28;20191;-80
2022/03/04 01:25:17;;;;;;;15.77;10.80;;;;;;;-1.34;55.93;95561.28;4971543;28;20190;-80
2022/03/04 01:27:43;;;;;;;13.47;10.03;;;;;;;-1.33;55.76;95555.28;4979145;28;20541;-80
2022/03/04 01:30:09;;;;;;;16.07;10.10;;;;;;;-1.29;55.95;95559.34;4962337;28;20281;-80
2022/03/04 01:32:35;;;;;;;16.60;11.13;;;;;;;-1.32;55.85;95552.69;4977551;28;20230;-79
2022/03/04 01:35:01;;;;;;;16.23;11.37;;;;;;;-1.40;55.62;95551.41;4978266;28;20189;-79
2022/03/04 01:37:27;;;;;;;17.30;10.97;;;;;;;-1.33;56.15;95552.72;4989247;28;20203;-81
2022/03/04 01:39:52;;;;;;;16.93;11.93;;;;;;;-1.45;56.29;95547.34;4958244;28;20624;-79
2022/03/04 01:42:18;;;;;;;17.37;11.23;;;;;;;-1.52;56.55;95548.53;4957300;28;20689;-80
2022/03/04 01:44:43;;;;;;;15.07;10.37;;;;;;;-1.63;57.08;95543.16;4974126;28;20240;-79
2022/03/04 01:47:09;;;;;;;17.43;11.73;;;;;;;-1.71;56.92;95537.59;4978137;28;20231;-79
2022/03/04 01:49:35;;;;;;;19.77;10.63;;;;;;;-1.62;57.27;95537.16;4961521;28;20187;-79
2022/03/04 01:52:00;;;;;;;22.03;11.77;;;;;;;-1.73;57.20;95527.50;4961779;28;20184;-79
2022/03/04 01:54:25;;;;;;;19.10;12.30;;;;;;;-1.78;56.98;95529.44;4961589;28;20275;-79
2022/03/04 01:56:51;;;;;;;17.87;11.80;;;;;;;-1.84;57.99;95526.38;4961970;28;20239;-80
2022/03/04 01:59:16;;;;;;;17.63;11.57;;;;;;;-1.91;58.24;95519.94;4957648;28;20212;-79
2022/03/04 02:01:42;;;;;;;17.43;10.90;;;;;;;-1.94;58.45;95525.13;4958500;28;20200;-80
2022/03/04 02:04:07;;;;;;;19.80;11.43;;;;;;;-1.95;58.22;95515.84;4958237;28;20204;-79
2022/03/04 02:06:32;;;;;;;16.93;11.57;;;;;;;-2.01;58.79;95524.63;4958802;28;20537;-80
2022/03/04 02:08:58;;;;;;;18.87;12.03;;;;;;;-1.98;58.72;95527.03;4941967;28;20182;-80
2022/03/04 02:11:23;;;;;;;19.47;11.50;;;;;;;-1.95;58.48;95520.94;4957914;28;20514;-80
2022/03/04 02:13:48;;;;;;;18.90;11.80;;;;;;;-2.02;58.76;95523.81;4969834;28;20680;-79
2022/03/04 02:16:19;;;;;;;18.07;11.47;;;;;;;-2.07;59.04;95525.72;4978088;28;20525;-80
2022/03/04 02:18:44;;;;;;;20.33;13.03;;;;;;;-2.09;59.17;95519.06;4961118;28;20295;-79
2022/03/04 02:21:11;;;;;;;17.63;11.37;;;;;;;-2.09;59.34;95526.72;4976759;28;20218;-80
2022/03/04 02:23:36;;;;;;;17.87;11.30;;;;;;;-2.17;59.49;95521.97;4961577;28;20231;-80
2022/03/04 02:26:01;;;;;;;16.77;11.80;;;;;;;-2.09;59.12;95522.44;4961432;28;20190;-79
2022/03/04 02:28:27;;;;;;;16.80;11.00;;;;;;;-2.14;59.50;95529.44;4977249;28;20612;-80
2022/03/04 02:30:52;;;;;;;17.53;11.43;;;;;;;-2.08;59.15;95526.63;4977366;28;20229;-77
2022/03/04 02:33:17;;;;;;;18.57;11.80;;;;;;;-2.13;59.79;95520.91;4957269;28;20212;-80
2022/03/04 02:35:43;;;;;;;18.07;11.30;;;;;;;-2.15;59.35;95527.81;4957570;28;20556;-79
2022/03/04 02:38:08;;;;;;;17.77;12.13;;;;;;;-2.17;60.14;95529.59;4941712;28;20286;-79
2022/03/04 02:40:34;;;;;;;17.97;12.40;;;;;;;-2.21;59.90;95528.09;4957882;28;20200;-79
2022/03/04 02:42:59;;;;;;;19.33;12.20;;;;;;;-2.17;59.56;95532.16;4940062;28;20197;-79
2022/03/04 02:45:25;;;;;;;18.90;12.27;;;;;;;-2.18;59.62;95533.06;4957652;28;20195;-78
2022/03/04 02:47:50;;;;;;;15.93;10.97;;;;;;;-2.04;59.47;95535.75;4941706;28;20276;-80
2022/03/04 02:50:15;;;;;;;20.37;12.53;;;;;;;-2.08;59.48;95531.72;4942232;28;20189;-79
2022/03/04 02:52:41;;;;;;;20.47;11.40;;;;;;;-2.10;60.04;95536.06;4957265;28;20207;-79
2022/03/04 02:55:10;;;;;;;16.60;11.20;;;;;;;-2.09;60.03;95534.34;4974247;28;20652;-79
2022/03/04 02:57:36;;;;;;;17.37;11.40;;;;;;;-1.97;58.88;95541.38;4958315;28;20177;-79
2022/03/04 03:00:03;;;;;;;18.57;11.63;;;;;;;-1.96;59.71;95542.22;4975564;28;20198;-78
2022/03/04 03:02:29;;;;;;;19.60;12.13;;;;;;;-2.02;59.54;95539.06;4957477;28;20214;-80
2022/03/04 03:04:54;;;;;;;15.77;11.33;;;;;;;-2.11;59.91;95541.22;4973682;28;20191;-79
2022/03/04 03:07:19;;;;;;;20.37;11.90;;;;;;;-2.02;59.86;95541.63;4941856;28;20189;-77
2022/03/04 03:09:44;;;;;;;20.63;12.17;;;;;;;-2.12;59.87;95547.19;4957906;28;20208;-80
2022/03/04 03:12:10;;;;;;;17.20;11.60;;;;;;;-2.16;60.19;95550.78;4941563;28;20208;-80
2022/03/04 03:14:35;;;;;;;18.23;12.57;;;;;;;-2.16;60.38;95541.44;4942245;28;20252;-79
2022/03/04 03:17:00;;;;;;;16.97;11.70;;;;;;;-2.25;60.69;95543.56;4957725;28;20193;-78
2022/03/04 03:19:26;;;;;;;20.97;12.67;;;;;;;-2.31;61.28;95539.59;4942082;28;20219;-77
2022/03/04 03:21:51;;;;;;;19.40;12.20;;;;;;;-2.39;61.11;95536.56;4941519;28;20193;-79
2022/03/04 03:24:16;;;;;;;17.90;11.53;;;;;;;-2.45;61.49;95539.41;4958383;28;20189;-79
2022/03/04 03:26:43;;;;;;;19.17;12.13;;;;;;;-2.50;61.74;95531.97;4958844;28;20219;-79
2022/03/04 03:29:09;;;;;;;20.13;11.93;;;;;;;-2.50;61.25;95547.22;4942974;28;20556;-79
2022/03/04 03:31:34;;;;;;;18.27;11.47;;;;;;;-2.51;61.60;95544.75;4941910;28;20188;-79
2022/03/04 03:34:00;;;;;;;20.73;12.43;;;;;;;-2.53;61.29;95533.84;4958500;28;20206;-80
2022/03/04 03:36:25;;;;;;;19.60;11.57;;;;;;;-2.57;62.11;95538.22;4943146;28;20194;-79
2022/03/04 03:38:50;;;;;;;17.67;12.13;;;;;;;-2.59;61.83;95537.47;4957897;28;20213;-79
2022/03/04 03:41:16;;;;;;;16.87;12.27;;;;;;;-2.66;61.74;95544.53;4957524;28;20655;-79
2022/03/04 03:43:41;;;;;;;18.77;12.33;;;;;;;-2.68;62.13;95537.88;4940713;28;20221;-79
2022/03/04 03:46:06;;;;;;;16.10;11.73;;;;;;;-2.70;61.82;95539.66;4958365;28;20181;-79
2022/03/04 03:48:32;;;;;;;20.37;12.53;;;;;;;-2.63;62.29;95535.97;4958639;28;20209;-79
2022/03/04 03:50:57;;;;;;;18.60;12.40;;;;;;;-2.69;62.23;95533.69;4942221;28;20178;-79
2022/03/04 03:53:22;;;;;;;20.83;11.80;;;;;;;-2.73;61.90;95530.47;4941682;28;20210;-79
2022/03/04 03:55:48;;;;;;;19.43;11.77;;;;;;;-2.70;61.97;95540.50;4975140;28;20645;-79
2022/03/04 03:58:13;;;;;;;19.40;11.97;;;;;;;-2.67;61.68;95540.34;4974710;28;20252;-79
2022/03/04 04:00:38;;;;;;;20.13;11.83;;;;;;;-2.72;61.77;95536.38;4941847;28;20220;-79
2022/03/04 04:03:04;;;;;;;18.30;11.97;;;;;;;-2.76;61.46;95530.59;4957413;28;20200;-79
2022/03/04 04:05:30;;;;;;;16.93;11.43;;;;;;;-2.69;61.38;95537.06;4941593;28;20192;-77
2022/03/04 04:07:55;;;;;;;19.10;11.20;;;;;;;-2.71;60.99;95538.84;4942078;28;20188;-79
2022/03/04 04:10:20;;;;;;;18.83;11.70;;;;;;;-2.67;60.86;95542.88;4958387;28;20180;-79
2022/03/04 04:12:46;;;;;;;22.03;11.67;;;;;;;-2.62;60.37;95540.97;4957190;28;20729;-79
2022/03/04 04:15:11;;;;;;;18.20;11.77;;;;;;;-2.58;59.96;95544.19;4958085;28;20549;-79
2022/03/04 04:17:36;;;;;;;19.73;11.33;;;;;;;-2.59;59.73;95542.56;4958159;28;20202;-79
2022/03/04 04:20:02;;;;;;;18.10;11.70;;;;;;;-2.49;59.53;95553.13;4957613;28;20257;-79
2022/03/04 04:22:28;;;;;;;15.27;11.20;;;;;;;-2.47;58.74;95547.09;4944048;28;20674;-78
2022/03/04 04:24:53;;;;;;;17.93;11.17;;;;;;;-2.40;58.74;95537.47;4945299;28;20184;-79
2022/03/04 04:27:18;;;;;;;17.83;10.90;;;;;;;-2.27;57.97;95536.03;4961022;28;20189;-79
2022/03/04 04:29:43;;;;;;;19.13;12.03;;;;;;;-2.29;58.11;95535.28;4961528;28;20654;-79
2022/03/04 04:32:09;;;;;;;21.27;11.93;;;;;;;-2.26;58.51;95545.28;4960706;28;20246;-79
2022/03/04 04:34:35;;;;;;;18.83;11.93;;;;;;;-2.30;58.38;95541.22;4961519;28;20181;-79
2022/03/04 04:37:00;;;;;;;20.37;12.50;;;;;;;-2.23;57.76;95545.16;4944921;28;20181;-79
2022/03/04 04:39:25;;;;;;;17.20;11.40;;;;;;;-2.22;57.64;95543.44;4962608;28;20696;-79
2022/03/04 04:41:50;;;;;;;18.37;11.33;;;;;;;-2.27;57.93;95556.38;4976930;28;20242;-78
2022/03/04 04:44:16;;;;;;;18.07;12.20;;;;;;;-2.29;57.77;95553.91;4961530;28;20185;-79
2022/03/04 04:46:41;;;;;;;17.47;11.40;;;;;;;-2.38;58.26;95553.50;4961529;28;20317;-79
2022/03/04 04:49:06;;;;;;;20.53;11.53;;;;;;;-2.42;58.56;95559.59;4944904;28;20233;-78
2022/03/04 04:51:35;;;;;;;17.73;10.90;;;;;;;-2.36;58.25;95559.34;4961468;28;20183;-79
2022/03/04 04:54:00;;;;;;;20.13;11.60;;;;;;;-2.45;58.33;95562.28;4976602;28;20204;-79
2022/03/04 04:56:26;;;;;;;18.33;12.30;;;;;;;-2.44;58.68;95562.22;4978695;28;20184;-78
2022/03/04 04:58:51;;;;;;;17.07;11.07;;;;;;;-2.44;58.33;95564.75;4962923;28;20233;-78
2022/03/04 05:01:16;;;;;;;16.50;10.50;;;;;;;-2.39;58.35;95572.16;4981053;28;20651;-78
2022/03/04 05:03:43;;;;;;;15.47;11.10;;;;;;;-2.51;58.75;95577.81;4990305;28;20207;-78
2022/03/04 05:06:08;;;;;;;17.23;10.97;;;;;;;-2.57;59.06;95582.25;4976047;28;20740;-78
2022/03/04 05:08:34;;;;;;;19.03;11.50;;;;;;;-2.64;59.12;95575.00;4977442;28;20266;-78
2022/03/04 05:11:00;;;;;;;18.70;12.57;;;;;;;-2.62;59.31;95583.38;4993984;28;20176;-78
2022/03/04 05:13:26;;;;;;;18.63;11.33;;;;;;;-2.64;59.12;95588.53;4976518;28;20219;-78
2022/03/04 05:15:51;;;;;;;23.27;12.30;;;;;;;-2.66;59.53;95585.22;4993951;28;20184;-78
2022/03/04 05:18:16;;;;;;;19.97;12.50;;;;;;;-2.71;59.65;95578.69;4994354;28;20195;-78
2022/03/04 05:20:43;;;;;;;19.43;11.70;;;;;;;-2.78;59.56;95582.38;4993933;28;20278;-78
2022/03/04 05:23:08;;;;;;;14.70;10.57;;;;;;;-2.86;59.63;95581.00;4960930;28;20196;-77
2022/03/04 05:25:33;;;;;;;20.43;11.27;;;;;;;-2.87;60.37;95583.63;4994333;28;20210;-78
2022/03/04 05:27:59;;;;;;;17.13;11.10;;;;;;;-2.91;59.99;95572.78;4977356;28;20191;-78
2022/03/04 05:30:24;;;;;;;17.70;12.57;;;;;;;-2.90;60.48;95581.22;4978074;28;20179;-78
2022/03/04 05:32:49;;;;;;;22.77;12.40;;;;;;;-2.93;60.14;95586.41;4995579;28;20625;-78
2022/03/04 05:35:15;;;;;;;21.43;12.37;;;;;;;-2.96;60.33;95582.28;4979037;28;20180;-78
2022/03/04 05:37:41;;;;;;;19.27;11.80;;;;;;;-2.97;60.57;95582.34;4978117;28;20183;-78
2022/03/04 05:40:07;;;;;;;19.37;12.57;;;;;;;-3.02;60.33;95590.16;4978963;28;20279;-78
2022/03/04 05:42:32;;;;;;;20.83;12.73;;;;;;;-3.05;60.83;95585.22;4977999;28;20198;-78
2022/03/04 05:44:57;;;;;;;20.77;12.57;;;;;;;-3.05;60.78;95590.31;4995773;28;20591;-78
2022/03/04 05:47:23;;;;;;;17.70;11.93;;;;;;;-3.06;60.75;95598.81;4980582;28;20204;-77
2022/03/04 05:49:48;;;;;;;25.73;12.57;;;;;;;-3.07;60.84;95602.25;4981434;28;20177;-78
2022/03/04 05:52:13;;;;;;;20.80;12.40;;;;;;;-3.07;60.80;95603.97;4998417;28;20219;-77
2022/03/04 05:54:39;;;;;;;20.70;12.83;;;;;;;-3.08;60.63;95604.84;4981022;28;20189;-78
2022/03/04 05:57:05;;;;;;;22.60;12.27;;;;;;;-2.95;60.15;95606.81;4981347;28;20679;-77
2022/03/04 05:59:30;;;;;;;20.90;11.60;;;;;;;-2.94;60.37;95605.09;4982654;28;20215;-78
2022/03/04 06:01:55;;;;;;;20.07;13.40;;;;;;;-2.94;60.16;95603.38;4981948;28;20180;-77
2022/03/04 06:04:21;;;;;;;20.07;12.40;;;;;;;-2.93;60.60;95607.56;4981944;28;20191;-78
2022/03/04 06:06:46;;;;;;;21.53;12.27;;;;;;;-2.92;60.61;95608.38;4987632;28;20180;-77
2022/03/04 06:09:11;;;;;;;21.00;12.60;;;;;;;-2.94;59.83;95608.44;4980629;28;20171;-78
2022/03/04 06:11:37;;;;;;;21.30;12.57;;;;;;;-2.89;60.47;95604.00;4980519;28;20179;-78
2022/03/04 06:14:03;;;;;;;18.77;12.37;;;;;;;-2.90;60.13;95616.78;4988754;28;20559;-78
2022/03/04 06:16:28;;;;;;;18.43;12.70;;;;;;;-2.89;59.97;95611.63;4998324;28;20186;-77
2022/03/04 06:18:54;;;;;;;19.93;12.60;;;;;;;-2.91;59.94;95610.88;4969019;28;20338;-78
2022/03/04 06:21:19;;;;;;;24.27;12.70;;;;;;;-2.93;60.12;95610.09;4973742;28;20212;-78
2022/03/04 06:23:44;;;;;;;20.73;12.80;;;;;;;-2.91;60.26;95612.59;4975851;28;20200;-78
2022/03/04 06:26:10;;;;;;;19.40;12.93;;;;;;;-2.87;60.40;95620.00;4976352;28;20189;-78
2022/03/04 06:28:35;;;;;;;21.30;13.20;;;;;;;-2.86;60.09;95621.66;4948407;28;20175;-77
2022/03/04 06:31:01;;;;;;;20.73;12.37;;;;;;;-2.86;60.46;95628.47;4990305;28;20192;-77
2022/03/04 06:33:36;;;;;;;18.97;11.87;;;;;;;-2.80;60.04;95629.94;4985315;28;20204;-77
2022/03/04 06:36:07;;;;;;;20.30;12.60;;;;;;;-2.78;60.16;95630.69;4964064;28;20183;-77
2022/03/04 06:38:35;;;;;;;20.77;12.10;;;;;;;-2.71;60.20;95637.16;4973861;28;20204;-76
2022/03/04 06:41:00;;;;;;;21.30;12.87;;;;;;;-2.67;59.83;95636.94;4974399;28;20197;-77
2022/03/04 06:43:26;;;;;;;23.47;12.67;;;;;;;-2.56;59.12;95633.97;4950388;28;20739;-77
2022/03/04 06:45:51;;;;;;;20.03;12.30;;;;;;;-2.48;59.10;95638.69;4951667;28;20811;-78
2022/03/04 06:48:18;;;;;;;20.60;12.73;;;;;;;-2.45;59.12;95636.03;4982606;28;20211;-79
2022/03/04 06:50:44;;;;;;;18.33;11.77;;;;;;;-2.39;59.01;95631.47;4974798;28;20182;-79
2022/03/04 06:53:10;;;;;;;24.37;13.50;;;;;;;-2.35;58.32;95637.28;4999206;28;20239;-77
2022/03/04 06:55:35;;;;;;;23.00;12.97;;;;;;;-2.20;58.48;95636.59;5001007;28;20632;-78
2022/03/04 06:58:00;;;;;;;22.77;12.77;;;;;;;-2.16;58.15;95644.91;4984476;28;20201;-78
2022/03/04 07:00:27;;;;;;;19.80;12.87;;;;;;;-2.06;57.31;95646.97;4979262;28;20184;-79
2022/03/04 07:02:52;;;;;;;20.33;12.67;;;;;;;-1.93;57.22;95654.91;4980979;28;20199;-79
2022/03/04 07:05:21;;;;;;;21.43;13.10;;;;;;;-1.94;57.60;95654.94;4974024;28;20203;-77
2022/03/04 07:07:47;;;;;;;23.13;13.37;;;;;;;-1.85;57.25;95647.75;4943615;28;20177;-77
2022/03/04 07:10:12;;;;;;;20.47;12.50;;;;;;;-1.70;56.93;95646.19;4991806;28;20181;-78
2022/03/04 07:12:38;;;;;;;22.10;13.43;;;;;;;-1.71;57.27;95647.09;4994186;28;20223;-77
2022/03/04 07:15:04;;;;;;;20.63;12.90;;;;;;;-1.63;56.46;95657.75;4966461;28;20656;-77
2022/03/04 07:17:29;;;;;;;20.30;12.53;;;;;;;-1.55;56.37;95659.94;4995931;28;20215;-78
2022/03/04 07:19:55;;;;;;;20.37;12.80;;;;;;;-1.44;55.99;95662.78;4977288;28;20303;-77
2022/03/04 07:22:20;;;;;;;22.90;12.57;;;;;;;-1.32;56.08;95661.41;4964079;28;20199;-78
2022/03/04 07:24:45;;;;;;;18.97;12.57;;;;;;;-1.25;55.63;95667.84;4965267;28;20189;-78
2022/03/04 07:27:11;;;;;;;22.47;14.00;;;;;;;-1.17;55.18;95674.22;4977162;28;20547;-79
2022/03/04 07:29:36;;;;;;;25.27;13.80;;;;;;;-1.06;55.35;95676.28;4991778;28;20182;-78
2022/03/04 07:32:01;;;;;;;19.53;12.40;;;;;;;-1.03;54.74;95675.28;4942768;28;20220;-78
2022/03/04 07:34:26;;;;;;;23.10;13.53;;;;;;;-0.92;54.56;95675.59;4992045;28;20252;-78
2022/03/04 07:36:52;;;;;;;22.17;12.80;;;;;;;-0.81;53.98;95678.41;4945546;28;20224;-78
2022/03/04 07:39:18;;;;;;;20.83;13.80;;;;;;;-0.78;53.83;95683.41;4992972;28;20217;-79
2022/03/04 07:41:43;;;;;;;22.07;13.57;;;;;;;-0.75;54.43;95677.31;4992968;28;20232;-78
2022/03/04 07:44:10;;;;;;;22.30;13.50;;;;;;;-0.66;54.05;95687.06;4968434;28;20239;-77
2022/03/04 07:46:36;;;;;;;24.83;14.33;;;;;;;-0.53;53.32;95683.00;4980506;28;20222;-79
2022/03/04 07:49:03;;;;;;;23.70;14.37;;;;;;;-0.43;52.62;95689.28;4997214;28;20181;-78
2022/03/04 07:51:28;;;;;;;26.67;14.83;;;;;;;-0.38;53.07;95684.75;4963034;28;20272;-78
2022/03/04 07:53:53;;;;;;;23.47;14.30;;;;;;;-0.30;52.76;95692.84;4974220;28;20783;-78
2022/03/04 07:56:18;;;;;;;28.33;15.43;;;;;;;-0.35;54.24;95686.34;4997110;28;20182;-79
2022/03/04 07:58:44;;;;;;;23.00;14.00;;;;;;;-0.18;54.27;95691.38;4965836;28;20750;-79
2022/03/04 08:01:09;;;;;;;25.30;15.50;;;;;;;-0.17;53.45;95687.94;4981016;28;20183;-79
2022/03/04 08:03:35;;;;;;;25.97;14.40;;;;;;;-0.09;53.43;95695.19;4950002;28;20210;-79
2022/03/04 08:06:00;;;;;;;22.70;14.70;;;;;;;-0.03;53.80;95698.25;5002133;28;20258;-79
2022/03/04 08:08:26;;;;;;;25.27;14.60;;;;;;;-0.03;53.28;95697.44;4984307;28;20179;-78
2022/03/04 08:10:53;;;;;;;22.13;14.03;;;;;;;0.12;52.57;95700.91;4966802;28;20201;-78
2022/03/04 08:13:18;;;;;;;27.77;15.00;;;;;;;0.15;52.47;95704.13;4968080;28;20197;-78
2022/03/04 08:15:43;;;;;;;28.13;16.50;;;;;;;0.17;52.26;95701.47;4948662;28;20189;-78
2022/03/04 08:18:09;;;;;;;27.47;16.20;;;;;;;0.07;52.86;95703.69;4979468;28;20191;-78
2022/03/04 08:20:34;;;;;;;23.30;15.50;;;;;;;0.12;51.28;95704.28;4980458;28;20557;-77
2022/03/04 08:22:59;;;;;;;22.57;14.97;;;;;;;0.18;51.74;95701.44;4997711;28;20705;-78
2022/03/04 08:25:25;;;;;;;24.10;14.43;;;;;;;0.20;51.30;95704.72;5002429;28;20190;-78
2022/03/04 08:27:50;;;;;;;23.37;15.20;;;;;;;0.27;52.28;95700.94;4986683;28;20233;-78
2022/03/04 08:30:15;;;;;;;24.73;15.20;;;;;;;0.36;51.53;95696.25;4971848;28;20638;-79
2022/03/04 08:32:41;;;;;;;28.33;15.17;;;;;;;0.33;51.41;95699.78;4964491;28;20218;-78
2022/03/04 08:35:06;;;;;;;23.50;14.17;;;;;;;0.42;51.27;95695.91;4983861;28;20549;-79
2022/03/04 08:37:32;;;;;;;27.00;18.13;;;;;;;0.44;51.93;95699.19;4972704;28;20666;-77
2022/03/04 08:39:58;;;;;;;26.43;15.17;;;;;;;0.53;51.51;95707.22;4947610;28;20209;-80
2022/03/04 08:42:24;;;;;;;23.83;14.47;;;;;;;0.65;50.62;95702.34;4980822;28;20207;-78
2022/03/04 08:44:49;;;;;;;30.43;17.20;;;;;;;0.51;51.41;95695.41;4982323;28;20309;-78
2022/03/04 08:47:15;;;;;;;25.30;15.03;;;;;;;0.72;50.63;95704.47;4981914;28;20230;-78
2022/03/04 08:49:40;;;;;;;23.97;14.80;;;;;;;0.78;51.04;95701.56;4999627;28;20182;-79
2022/03/04 08:52:06;;;;;;;31.80;18.17;;;;;;;0.82;51.31;95705.63;4981104;28;20186;-78
2022/03/04 08:54:31;;;;;;;29.37;16.00;;;;;;;0.94;51.60;95708.38;4981811;28;20543;-77
2022/03/04 08:56:57;;;;;;;28.40;16.57;;;;;;;1.02;51.36;95708.78;4963899;28;20597;-79
2022/03/04 08:59:22;;;;;;;25.13;15.50;;;;;;;0.95;51.44;95708.28;4982782;28;20230;-78
2022/03/04 09:01:47;;;;;;;27.60;16.03;;;;;;;0.96;50.69;95714.25;4981526;28;20187;-78
2022/03/04 09:04:14;;;;;;;29.43;16.50;;;;;;;0.99;51.10;95714.91;4979195;28;20207;-79
2022/03/04 09:06:40;;;;;;;25.53;15.83;;;;;;;1.01;51.32;95714.81;4979169;28;20177;-78
2022/03/04 09:09:05;;;;;;;23.50;15.53;;;;;;;1.09;51.17;95715.22;4948605;28;20188;-78
2022/03/04 09:11:30;;;;;;;28.57;17.17;;;;;;;1.18;51.30;95714.69;4946144;28;20664;-78
2022/03/04 09:13:56;;;;;;;21.43;14.90;;;;;;;1.25;49.66;95712.63;4964034;28;20222;-77
2022/03/04 09:16:21;;;;;;;24.13;15.57;;;;;;;1.41;49.88;95718.47;4982811;28;20206;-77
2022/03/04 09:18:46;;;;;;;28.20;16.20;;;;;;;1.53;50.33;95725.47;4966897;28;20213;-78
2022/03/04 09:21:12;;;;;;;29.63;15.73;;;;;;;1.64;49.87;95720.56;4965958;28;20183;-78
2022/03/04 09:23:37;;;;;;;24.87;15.93;;;;;;;1.79;49.87;95725.72;4968675;28;20258;-78
2022/03/04 09:26:02;;;;;;;26.83;15.87;;;;;;;1.53;48.44;95724.66;4961599;28;20176;-79
2022/03/04 09:28:28;;;;;;;23.27;15.20;;;;;;;1.61;48.26;95719.91;4962077;28;20278;-78
2022/03/04 09:30:53;;;;;;;24.67;15.47;;;;;;;1.89;48.00;95722.50;4995454;28;20180;-78
2022/03/04 09:33:18;;;;;;;25.23;15.63;;;;;;;1.98;49.34;95718.56;4995445;28;20244;-78
2022/03/04 09:35:44;;;;;;;24.20;15.53;;;;;;;2.10;47.99;95720.41;4993893;28;20183;-78
2022/03/04 09:38:09;;;;;;;26.13;16.70;;;;;;;2.10;47.27;95724.69;4977245;28;20210;-79
2022/03/04 09:40:34;;;;;;;24.47;15.03;;;;;;;2.19;47.69;95724.16;4988054;28;20280;-78
2022/03/04 09:43:00;;;;;;;24.13;15.67;;;;;;;2.19;48.09;95724.97;4955068;29;20343;-79
2022/03/04 09:45:26;;;;;;;24.53;15.27;;;;;;;2.35;48.99;95735.13;4923478;29;20189;-79
2022/03/04 09:47:51;;;;;;;27.43;16.27;;;;;;;2.53;47.72;95739.13;4941569;28;20173;-78
2022/03/04 09:50:17;;;;;;;29.13;16.37;;;;;;;2.55;47.10;95737.28;4971820;28;20185;-78
2022/03/04 09:52:45;;;;;;;30.73;15.83;;;;;;;2.60;46.98;95734.44;4925754;28;20259;-78
2022/03/04 09:55:11;;;;;;;23.50;15.03;;;;;;;2.63;45.97;95734.25;4960991;28;20603;-78
2022/03/04 09:57:36;;;;;;;27.07;16.40;;;;;;;2.64;47.63;95729.94;4943183;28;20179;-78
2022/03/04 10:00:04;;;;;;;24.73;15.33;;;;;;;2.84;47.89;95724.41;4959039;28;20211;-78
2022/03/04 10:02:33;;;;;;;25.13;15.43;;;;;;;3.00;47.57;95725.06;4946172;28;20205;-76
2022/03/04 10:05:00;;;;;;;24.20;17.10;;;;;;;3.01;46.52;95725.91;4930403;29;20234;-77
2022/03/04 10:07:26;;;;;;;24.70;14.83;;;;;;;3.19;44.77;95727.31;4943897;29;20170;-79
2022/03/04 10:09:52;;;;;;;21.53;15.13;;;;;;;3.07;43.95;95728.06;4929052;29;20185;-79
2022/03/04 10:12:18;;;;;;;25.47;15.73;;;;;;;2.98;44.74;95721.78;4940844;29;20197;-78
2022/03/04 10:15:04;;;;;;;24.47;14.27;;;;;;;3.08;44.73;95725.41;4942398;28;20180;-80
2022/03/04 10:17:31;;;;;;;21.83;14.70;;;;;;;3.24;44.45;95724.44;4947137;28;21054;-78
2022/03/04 10:19:58;;;;;;;23.63;15.40;;;;;;;3.24;43.88;95727.00;4950819;28;20223;-80
2022/03/04 10:22:35;;;;;;;25.77;15.10;;;;;;;3.29;43.18;95727.53;4943414;29;20197;-79
2022/03/04 10:25:01;;;;;;;26.10;14.20;;;;;;;3.24;42.86;95729.56;4944249;29;20246;-79
2022/03/04 10:27:33;;;;;;;23.60;13.90;;;;;;;3.11;42.55;95726.97;4928501;29;20215;-79
2022/03/04 10:29:58;;;;;;;25.77;14.80;;;;;;;3.03;42.17;95724.88;4930624;29;20183;-80
2022/03/04 10:32:26;;;;;;;24.17;15.40;;;;;;;3.16;42.01;95729.22;4944436;29;20709;-79
2022/03/04 10:35:10;;;;;;;22.73;14.90;;;;;;;3.23;43.69;95721.03;4929107;29;20184;-79
2022/03/04 10:37:54;;;;;;;23.50;14.10;;;;;;;3.35;42.53;95722.81;4929076;29;20654;-80
2022/03/04 10:40:21;;;;;;;23.70;14.70;;;;;;;3.36;42.28;95723.66;4960530;28;20228;-79
2022/03/04 10:42:48;;;;;;;21.70;14.87;;;;;;;3.31;42.21;95718.81;4962956;28;20196;-79
2022/03/04 10:45:16;;;;;;;23.67;14.70;;;;;;;3.50;42.04;95717.59;4947121;29;20181;-81
2022/03/04 10:47:45;;;;;;;25.40;15.77;;;;;;;3.52;41.91;95724.28;4942843;29;20173;-80
2022/03/04 10:50:12;;;;;;;23.87;15.43;;;;;;;3.42;41.84;95713.78;4944309;29;20180;-78
2022/03/04 10:52:51;;;;;;;26.30;15.83;;;;;;;3.27;41.56;95719.94;4922071;29;20205;-79
2022/03/04 10:55:33;;;;;;;26.27;16.30;;;;;;;3.37;41.03;95717.59;4941662;29;20208;-80
2022/03/04 10:58:00;;;;;;;20.83;14.03;;;;;;;3.29;40.91;95718.09;4957002;29;20657;-79
2022/03/04 11:00:28;;;;;;;23.73;15.03;;;;;;;3.32;41.66;95711.94;4941077;29;20697;-80
2022/03/04 11:02:54;;;;;;;27.53;14.80;;;;;;;3.46;41.28;95719.56;4924376;29;20196;-79
2022/03/04 11:05:20;;;;;;;22.00;13.73;;;;;;;3.72;39.56;95712.72;4941239;29;20244;-79
2022/03/04 11:07:46;;;;;;;20.20;13.27;;;;;;;3.73;38.37;95724.63;4924337;29;20185;-79
2022/03/04 11:10:11;;;;;;;22.80;15.57;;;;;;;3.56;39.09;95719.78;4923312;29;20187;-78
2022/03/04 11:12:37;;;;;;;21.97;15.20;;;;;;;3.79;39.26;95716.50;4938651;29;20708;-78